Time;durP1;ratioP1;P1;durP2;ratioP2;P2;SDS_P1;SDS_P2;PMS_P1;PMS_P2;Temp;Humidity;BMP_temperature;BMP_pressure;BME280_temperature;BME280_humidity;BME280_pressure;Samples;Min_cycle;Max_cycle;Signal;HPM_P1;HPM_P2
2023/08/08 00:01:36;;;;;;;3.45;1.25;;;;;;;11.98;100.00;98944.19;5052123;22;20061;-73
2023/08/08 00:04:02;;;;;;;3.47;1.23;;;;;;;12.04;100.00;98944.16;5026416;28;20080;-71
2023/08/08 00:06:27;;;;;;;2.42;1.20;;;;;;;11.96;100.00;98936.25;5021202;28;20060;-73
2023/08/08 00:08:52;;;;;;;3.58;1.00;;;;;;;11.96;100.00;98949.78;5021968;28;20394;-73
2023/08/08 00:11:18;;;;;;;4.53;1.20;;;;;;;11.87;100.00;98952.91;5015511;28;20026;-73
2023/08/08 00:13:43;;;;;;;2.70;1.13;;;;;;;11.82;100.00;98956.25;5030879;28;20053;-73
2023/08/08 00:16:08;;;;;;;2.10;1.10;;;;;;;11.80;100.00;98952.88;5013327;28;20116;-71
2023/08/08 00:18:33;;;;;;;2.97;1.30;;;;;;;11.79;100.00;98948.53;5010049;28;20066;-72
2023/08/08 00:20:59;;;;;;;2.85;1.20;;;;;;;11.82;100.00;98954.34;5010013;28;20085;-73
2023/08/08 00:23:24;;;;;;;4.10;1.58;;;;;;;11.70;100.00;98944.34;5014960;28;20069;-72
2023/08/08 00:25:50;;;;;;;2.22;1.50;;;;;;;11.71;100.00;98954.97;5011892;28;20033;-73
2023/08/08 00:28:17;;;;;;;3.35;1.63;;;;;;;11.68;100.00;98970.81;5009919;28;20380;-71
2023/08/08 00:30:43;;;;;;;5.00;1.60;;;;;;;11.68;100.00;98962.66;5014357;28;20109;-73
2023/08/08 00:33:08;;;;;;;1.73;1.30;;;;;;;11.65;100.00;98953.06;5019321;28;20069;-73
2023/08/08 00:35:33;;;;;;;2.63;1.45;;;;;;;11.67;100.00;98961.84;5016832;28;20026;-73
2023/08/08 00:37:58;;;;;;;1.90;1.20;;;;;;;11.68;100.00;98949.13;5028948;28;20026;-73
2023/08/08 00:40:24;;;;;;;3.17;1.42;;;;;;;11.68;100.00;98944.53;5031059;28;20034;-73
2023/08/08 00:42:49;;;;;;;4.00;1.33;;;;;;;11.77;100.00;98950.59;5017375;28;20022;-72
2023/08/08 00:45:14;;;;;;;2.00;1.25;;;;;;;11.75;100.00;98941.84;5017150;28;20034;-73
2023/08/08 00:47:40;;;;;;;2.08;1.10;;;;;;;11.76;100.00;98940.78;5025931;28;20109;-73
2023/08/08 00:50:05;;;;;;;1.42;1.05;;;;;;;11.71;100.00;98943.28;5019503;28;20081;-72
2023/08/08 00:52:31;;;;;;;2.20;1.40;;;;;;;11.68;100.00;98944.53;5019727;28;20088;-73
2023/08/08 00:54:57;;;;;;;2.05;1.27;;;;;;;11.75;100.00;98947.25;5016634;28;20030;-73
2023/08/08 00:57:23;;;;;;;3.13;1.30;;;;;;;11.71;100.00;98946.84;5017014;28;20049;-73
2023/08/08 00:59:48;;;;;;;3.72;1.05;;;;;;;11.67;100.00;98939.34;5019298;28;20081;-73
2023/08/08 01:02:14;;;;;;;4.60;1.50;;;;;;;11.65;100.00;98938.69;5009217;28;20467;-72
2023/08/08 01:04:39;;;;;;;2.53;1.40;;;;;;;11.72;100.00;98939.53;5010850;28;20065;-73
2023/08/08 01:07:46;;;;;;;1.65;1.10;;;;;;;11.80;100.00;98942.06;5007198;28;20033;-73
2023/08/08 01:10:16;;;;;;;4.13;1.10;;;;;;;11.87;100.00;98934.78;5011755;28;20030;-72
2023/08/08 01:12:50;;;;;;;2.97;1.35;;;;;;;11.86;100.00;98933.09;5021482;28;20085;-72
2023/08/08 01:15:16;;;;;;;3.20;1.13;;;;;;;11.85;100.00;98928.72;5008709;28;20094;-73
2023/08/08 01:17:42;;;;;;;4.88;1.15;;;;;;;11.80;100.00;98926.63;5005494;28;20022;-73
2023/08/08 01:20:10;;;;;;;2.10;1.17;;;;;;;11.78;100.00;98917.03;5019004;28;20018;-73
2023/08/08 01:23:03;;;;;;;1.98;1.10;;;;;;;11.86;100.00;98930.41;5009499;28;20028;-72
2023/08/08 01:25:29;;;;;;;2.67;1.20;;;;;;;11.83;100.00;98930.78;5017492;28;20022;-73
2023/08/08 01:27:55;;;;;;;2.05;1.20;;;;;;;11.78;100.00;98933.28;5014420;28;20030;-73
2023/08/08 01:30:20;;;;;;;3.08;1.50;;;;;;;11.76;100.00;98940.78;5015432;28;20495;-72
2023/08/08 01:32:46;;;;;;;5.07;1.73;;;;;;;11.71;100.00;98937.84;5011573;28;20030;-73
2023/08/08 01:35:11;;;;;;;3.60;1.30;;;;;;;11.62;100.00;98932.66;5017788;28;20076;-73
2023/08/08 01:37:40;;;;;;;3.67;1.67;;;;;;;11.56;100.00;98936.19;5010333;28;20036;-73
2023/08/08 01:40:07;;;;;;;2.15;1.35;;;;;;;11.56;100.00;98930.78;5009920;28;20034;-73
2023/08/08 01:42:33;;;;;;;2.92;1.50;;;;;;;11.61;100.00;98939.13;5013438;28;20056;-73
2023/08/08 01:44:58;;;;;;;3.38;1.80;;;;;;;11.58;100.00;98925.13;5016313;28;20025;-74
2023/08/08 01:47:24;;;;;;;2.70;1.70;;;;;;;11.68;100.00;98927.44;5005933;28;20057;-74
2023/08/08 01:49:49;;;;;;;2.25;1.45;;;;;;;11.71;100.00;98921.59;5010879;28;20108;-73
2023/08/08 01:52:15;;;;;;;3.58;1.50;;;;;;;11.68;100.00;98924.72;5011514;28;20026;-72
2023/08/08 01:54:42;;;;;;;4.13;1.60;;;;;;;11.74;100.00;98929.34;5013963;28;20057;-73
2023/08/08 01:57:07;;;;;;;2.70;1.30;;;;;;;11.75;100.00;98933.72;5015562;28;20021;-75
2023/08/08 01:59:33;;;;;;;2.17;1.45;;;;;;;11.74;100.00;98913.06;5013980;28;20038;-73
2023/08/08 02:01:58;;;;;;;7.78;1.48;;;;;;;11.77;100.00;98920.78;5026748;28;20040;-72
2023/08/08 02:04:23;;;;;;;6.25;1.65;;;;;;;11.78;100.00;98919.72;5017126;28;20018;-72
2023/08/08 02:06:48;;;;;;;2.42;1.55;;;;;;;11.75;100.00;98920.16;5030238;28;20025;-73
2023/08/08 02:09:16;;;;;;;4.50;1.17;;;;;;;11.71;100.00;98908.91;5010278;28;20489;-73
2023/08/08 02:11:42;;;;;;;4.85;1.50;;;;;;;11.74;100.00;98918.50;5030118;28;20022;-73
2023/08/08 02:14:07;;;;;;;4.90;1.35;;;;;;;11.69;100.00;98918.28;5011570;28;20494;-73
2023/08/08 02:16:34;;;;;;;3.10;1.40;;;;;;;11.75;100.00;98926.41;5007030;28;20033;-72
2023/08/08 02:19:00;;;;;;;2.17;1.30;;;;;;;11.75;100.00;98912.03;4999411;28;20514;-72
2023/08/08 02:21:25;;;;;;;2.42;1.17;;;;;;;11.77;100.00;98915.38;5011575;28;20026;-73
2023/08/08 02:23:50;;;;;;;1.98;1.30;;;;;;;11.74;100.00;98913.91;5012813;28;20054;-74
2023/08/08 02:26:16;;;;;;;6.15;1.67;;;;;;;11.75;100.00;98909.31;5012569;28;20105;-73
2023/08/08 02:28:41;;;;;;;2.25;1.13;;;;;;;11.78;100.00;98906.19;5009582;28;20106;-73
2023/08/08 02:31:06;;;;;;;4.47;1.25;;;;;;;11.82;100.00;98910.97;5009540;28;20034;-72
2023/08/08 02:33:32;;;;;;;2.72;1.50;;;;;;;11.77;100.00;98897.22;5012324;28;20042;-73
2023/08/08 02:35:57;;;;;;;5.03;1.30;;;;;;;11.76;100.00;98909.13;5013463;28;20081;-73
2023/08/08 02:38:22;;;;;;;1.75;1.55;;;;;;;11.78;100.00;98914.31;5008435;28;20037;-74
2023/08/08 02:40:48;;;;;;;4.63;1.60;;;;;;;11.66;100.00;98918.66;5013264;28;20092;-72
2023/08/08 02:43:13;;;;;;;3.70;1.55;;;;;;;11.50;100.00;98919.91;5008585;28;20029;-74
2023/08/08 02:45:38;;;;;;;1.98;1.40;;;;;;;11.38;100.00;98927.81;5007485;28;20056;-73
2023/08/08 02:48:05;;;;;;;1.73;1.27;;;;;;;11.16;100.00;98914.44;5009621;28;20446;-73
2023/08/08 02:50:30;;;;;;;3.10;1.50;;;;;;;11.15;100.00;98939.84;5012877;28;20416;-74
2023/08/08 02:52:56;;;;;;;3.30;2.05;;;;;;;11.03;100.00;98944.19;5010782;28;20026;-73
2023/08/08 02:55:21;;;;;;;2.03;1.30;;;;;;;10.82;100.00;98934.31;5012281;28;20038;-73
2023/08/08 02:57:47;;;;;;;6.32;1.77;;;;;;;10.78;100.00;98943.03;5003344;28;20025;-73
2023/08/08 03:00:12;;;;;;;4.75;1.95;;;;;;;10.60;100.00;98930.88;5007547;28;20551;-73
2023/08/08 03:02:38;;;;;;;4.05;1.45;;;;;;;10.45;100.00;98943.69;4998753;28;20034;-73
2023/08/08 03:05:04;;;;;;;2.20;1.50;;;;;;;10.41;100.00;98947.84;5014052;28;20021;-73
2023/08/08 03:07:29;;;;;;;6.43;2.17;;;;;;;10.40;100.00;98954.25;5009136;28;20446;-72
2023/08/08 03:09:55;;;;;;;4.60;2.70;;;;;;;10.22;100.00;98939.38;5015088;28;20027;-72
2023/08/08 03:12:20;;;;;;;4.68;1.75;;;;;;;10.25;100.00;98951.66;5015072;28;20053;-73
2023/08/08 03:14:46;;;;;;;2.50;1.75;;;;;;;10.14;100.00;98946.78;5008664;28;20037;-73
2023/08/08 03:17:12;;;;;;;3.33;1.75;;;;;;;10.05;100.00;98943.41;5003957;28;20027;-77
2023/08/08 03:19:37;;;;;;;5.07;1.70;;;;;;;10.00;100.00;98943.16;5015008;28;20105;-79
2023/08/08 03:22:02;;;;;;;3.08;1.92;;;;;;;10.03;100.00;98945.44;5028389;28;20087;-79
2023/08/08 03:24:28;;;;;;;3.33;1.70;;;;;;;10.11;100.00;98942.59;5014013;28;20041;-79
2023/08/08 03:26:53;;;;;;;4.65;2.10;;;;;;;10.23;100.00;98959.97;5015341;28;20022;-79
2023/08/08 03:29:18;;;;;;;4.45;2.00;;;;;;;10.21;100.00;98953.91;5015263;28;20033;-79
2023/08/08 03:31:44;;;;;;;3.38;1.95;;;;;;;10.14;100.00;98936.81;5014290;28;20021;-79
2023/08/08 03:34:09;;;;;;;6.60;2.00;;;;;;;10.13;100.00;98927.03;5030458;28;20026;-79
2023/08/08 03:36:34;;;;;;;6.28;1.90;;;;;;;10.19;100.00;98945.19;4998517;28;20030;-78
2023/08/08 03:39:00;;;;;;;4.50;1.92;;;;;;;10.15;100.00;98937.66;5003408;28;20029;-78
2023/08/08 03:41:25;;;;;;;4.70;1.73;;;;;;;10.21;100.00;98944.97;5015616;28;20105;-80
2023/08/08 03:43:50;;;;;;;2.72;1.90;;;;;;;10.22;100.00;98941.25;5019480;28;20113;-80
2023/08/08 03:46:17;;;;;;;3.42;1.88;;;;;;;10.28;100.00;98962.09;5019915;28;20083;-80
2023/08/08 03:48:42;;;;;;;8.88;2.42;;;;;;;10.11;100.00;98920.97;5024916;28;20030;-80
2023/08/08 03:51:08;;;;;;;5.43;2.50;;;;;;;10.34;100.00;98947.78;5014560;28;20021;-81
2023/08/08 03:53:33;;;;;;;7.72;2.17;;;;;;;10.21;100.00;98912.53;5015112;28;20030;-79
2023/08/08 03:55:59;;;;;;;3.88;1.90;;;;;;;10.17;100.00;98892.34;5017391;28;20022;-79
2023/08/08 03:58:25;;;;;;;4.40;1.92;;;;;;;10.61;100.00;98951.50;5015539;28;20029;-79
2023/08/08 04:00:51;;;;;;;2.20;1.60;;;;;;;10.66;100.00;98946.31;5008367;28;20116;-76
2023/08/08 04:03:16;;;;;;;2.28;1.70;;;;;;;10.80;100.00;98954.50;5013842;28;20435;-70
2023/08/08 04:05:46;;;;;;;8.23;1.75;;;;;;;10.81;100.00;98935.34;5027192;28;20121;-79
2023/08/08 04:08:12;;;;;;;3.17;1.35;;;;;;;11.02;100.00;98939.81;5020721;28;20030;-78
2023/08/08 04:10:38;;;;;;;3.17;1.90;;;;;;;11.10;100.00;98942.31;5015259;28;20364;-78
2023/08/08 04:13:03;;;;;;;5.70;1.58;;;;;;;11.20;100.00;98928.41;5012922;28;20026;-78
2023/08/08 04:15:29;;;;;;;4.45;1.55;;;;;;;11.26;100.00;98934.88;5014418;28;20117;-77
2023/08/08 04:17:54;;;;;;;4.10;1.67;;;;;;;11.26;100.00;98916.75;5005246;28;20025;-76
2023/08/08 04:20:20;;;;;;;3.08;1.45;;;;;;;11.32;100.00;98934.06;5014664;28;20926;-79
2023/08/08 04:22:46;;;;;;;4.38;1.70;;;;;;;11.29;100.00;98924.47;5028584;28;20088;-78
2023/08/08 04:25:11;;;;;;;4.90;2.00;;;;;;;11.27;100.00;98920.31;5023634;28;20030;-76
2023/08/08 04:27:36;;;;;;;3.15;1.75;;;;;;;11.41;100.00;98939.06;5013781;28;20049;-77
2023/08/08 04:30:03;;;;;;;5.30;1.77;;;;;;;11.36;100.00;98908.22;5015220;28;20026;-76
2023/08/08 04:32:28;;;;;;;3.70;1.30;;;;;;;11.49;100.00;98918.25;5024442;28;20510;-79
2023/08/08 04:34:53;;;;;;;3.50;1.80;;;;;;;11.61;100.00;98938.28;5025347;28;20010;-79
2023/08/08 04:37:19;;;;;;;3.00;1.55;;;;;;;11.61;100.00;98928.28;5043917;28;20083;-79
2023/08/08 04:39:44;;;;;;;4.22;1.60;;;;;;;11.70;100.00;98931.59;5016637;28;20113;-79
2023/08/08 04:42:09;;;;;;;3.03;1.48;;;;;;;11.81;100.00;98930.16;5015163;28;20061;-71
2023/08/08 04:44:35;;;;;;;4.78;1.40;;;;;;;11.93;100.00;98923.09;5013251;28;20100;-73
2023/08/08 04:47:00;;;;;;;2.85;1.33;;;;;;;12.04;100.00;98914.31;5010313;28;20518;-77
2023/08/08 04:49:25;;;;;;;1.48;1.10;;;;;;;12.06;100.00;98898.69;5009068;28;20038;-77
2023/08/08 04:51:50;;;;;;;7.78;1.88;;;;;;;12.08;100.00;98901.19;5011101;28;20061;-77
2023/08/08 04:54:16;;;;;;;3.63;1.50;;;;;;;12.18;100.00;98911.59;5014375;28;20030;-76
2023/08/08 04:56:41;;;;;;;2.25;1.15;;;;;;;12.03;100.00;98896.41;5017247;28;20026;-78
2023/08/08 04:59:07;;;;;;;2.53;1.35;;;;;;;12.09;100.00;98893.91;5013709;28;20048;-75
2023/08/08 05:01:32;;;;;;;4.50;1.45;;;;;;;12.17;100.00;98905.34;5022265;28;20188;-77
2023/08/08 05:03:57;;;;;;;5.15;1.50;;;;;;;12.23;100.00;98909.09;5025650;28;20022;-77
2023/08/08 05:06:22;;;;;;;3.05;1.38;;;;;;;12.15;100.00;98893.88;5013717;28;20133;-77
2023/08/08 05:08:50;;;;;;;2.58;1.35;;;;;;;12.25;100.00;98896.97;5012953;28;20383;-76
2023/08/08 05:11:15;;;;;;;6.60;1.40;;;;;;;12.46;100.00;98914.88;5010119;28;20042;-77
2023/08/08 05:13:40;;;;;;;2.65;1.50;;;;;;;12.58;100.00;98916.94;5013248;28;20057;-77
2023/08/08 05:16:06;;;;;;;2.58;1.70;;;;;;;12.69;100.00;98905.44;5010643;28;20124;-78
2023/08/08 05:18:31;;;;;;;2.13;1.40;;;;;;;12.85;100.00;98895.97;5022060;28;20566;-76
2023/08/08 05:20:56;;;;;;;11.23;2.10;;;;;;;13.27;100.00;98897.22;5005770;28;20081;-78
2023/08/08 05:23:22;;;;;;;6.10;1.70;;;;;;;13.57;100.00;98878.44;5008857;28;20071;-79
2023/08/08 05:25:47;;;;;;;7.75;2.03;;;;;;;13.85;100.00;98873.59;5007514;28;20057;-77
2023/08/08 05:28:13;;;;;;;2.80;1.30;;;;;;;14.02;100.00;98883.69;5011091;28;20030;-77
2023/08/08 05:30:39;;;;;;;4.97;1.30;;;;;;;14.16;100.00;98886.28;5008810;28;20027;-76
2023/08/08 05:33:04;;;;;;;2.75;1.40;;;;;;;14.21;100.00;98884.53;5007589;28;20044;-77
2023/08/08 05:35:30;;;;;;;2.10;1.40;;;;;;;14.32;100.00;98882.13;5010579;28;20029;-75
2023/08/08 05:37:55;;;;;;;2.25;1.17;;;;;;;14.00;100.00;98860.47;5029073;28;20089;-76
2023/08/08 05:40:21;;;;;;;2.75;1.20;;;;;;;14.00;100.00;98884.97;5013082;28;20064;-76
2023/08/08 05:42:46;;;;;;;2.83;1.27;;;;;;;13.87;100.00;98882.38;5004924;28;20431;-77
2023/08/08 05:45:11;;;;;;;3.90;1.23;;;;;;;13.83;100.00;98890.13;5005836;28;20093;-79
2023/08/08 05:47:37;;;;;;;3.78;1.20;;;;;;;13.90;100.00;98884.63;5004489;28;20025;-74
2023/08/08 05:50:02;;;;;;;4.75;1.50;;;;;;;14.21;100.00;98900.88;5013225;28;20026;-73
2023/08/08 05:52:27;;;;;;;2.22;1.40;;;;;;;14.59;100.00;98889.00;5012323;28;20038;-72
2023/08/08 05:54:53;;;;;;;2.03;1.17;;;;;;;15.02;100.00;98900.81;5003542;28;20030;-72
2023/08/08 05:57:18;;;;;;;3.35;1.15;;;;;;;15.16;100.00;98876.94;5022326;28;20026;-72
2023/08/08 05:59:44;;;;;;;2.70;1.55;;;;;;;15.19;100.00;98879.19;4986355;28;1044591;-71
2023/08/08 06:02:10;;;;;;;3.25;1.23;;;;;;;15.40;100.00;98878.66;5017964;28;20101;-71
2023/08/08 06:04:35;;;;;;;5.30;1.27;;;;;;;15.68;100.00;98885.38;5028181;28;20018;-72
2023/08/08 06:07:00;;;;;;;2.38;1.17;;;;;;;15.71;100.00;98879.47;5029948;28;20102;-73
2023/08/08 06:09:26;;;;;;;8.15;1.50;;;;;;;15.90;100.00;98874.75;5026850;28;20093;-71
2023/08/08 06:11:51;;;;;;;3.80;1.30;;;;;;;15.72;100.00;98867.53;5024563;28;20021;-72
2023/08/08 06:14:17;;;;;;;4.22;1.33;;;;;;;15.64;100.00;98884.16;5028460;28;20064;-71
2023/08/08 06:16:42;;;;;;;1.55;1.10;;;;;;;15.64;100.00;98870.53;5022014;28;20100;-72
2023/08/08 06:19:08;;;;;;;1.58;1.13;;;;;;;16.14;100.00;98870.97;5030648;28;20089;-73
2023/08/08 06:21:35;;;;;;;3.40;1.48;;;;;;;17.56;100.00;98865.09;5012811;28;20029;-73
2023/08/08 06:24:01;;;;;;;4.93;1.23;;;;;;;20.25;100.00;98851.31;5010676;28;20040;-73
2023/08/08 06:26:26;;;;;;;3.00;1.30;;;;;;;22.35;100.00;98858.16;5011731;28;20484;-72
2023/08/08 06:28:51;;;;;;;1.13;0.70;;;;;;;22.74;100.00;98862.97;5009095;28;20050;-73
2023/08/08 06:31:18;;;;;;;3.35;0.88;;;;;;;24.52;87.27;98854.53;5009491;28;20025;-73
2023/08/08 06:33:43;;;;;;;3.13;1.25;;;;;;;25.95;74.59;98849.81;5011241;28;20022;-73
2023/08/08 06:36:08;;;;;;;4.90;0.90;;;;;;;26.57;67.54;98854.28;5013250;28;20754;-72
2023/08/08 06:38:34;;;;;;;1.25;0.88;;;;;;;27.19;64.33;98846.31;5014886;28;20105;-73
2023/08/08 06:41:00;;;;;;;1.00;0.60;;;;;;;26.70;62.48;98856.22;5013215;28;20025;-72
2023/08/08 06:43:26;;;;;;;1.45;0.70;;;;;;;28.22;59.32;98861.38;5013889;28;20069;-73
2023/08/08 06:45:51;;;;;;;2.90;0.70;;;;;;;29.30;56.43;98858.34;5013411;28;20033;-72
2023/08/08 06:48:17;;;;;;;1.40;0.65;;;;;;;30.00;53.63;98842.44;5004331;28;20542;-70
2023/08/08 06:50:42;;;;;;;1.25;0.70;;;;;;;29.83;52.11;98837.72;5015162;28;20041;-73
2023/08/08 06:53:08;;;;;;;4.18;0.80;;;;;;;28.73;54.20;98848.84;5016573;28;20383;-73
2023/08/08 06:55:33;;;;;;;2.42;0.75;;;;;;;26.96;57.40;98852.91;5029541;28;20028;-72
2023/08/08 06:57:58;;;;;;;3.03;1.00;;;;;;;25.18;60.29;98858.47;5011448;28;20116;-73
2023/08/08 07:00:24;;;;;;;6.45;0.80;;;;;;;26.62;57.37;98848.63;5060888;22;20036;-53
2023/08/08 07:02:49;;;;;;;2.55;0.90;;;;;;;26.96;57.45;98850.97;5029719;28;20041;-55
2023/08/08 07:05:15;;;;;;;1.85;0.75;;;;;;;26.42;58.02;98842.31;5025609;28;20033;-54
2023/08/08 07:07:40;;;;;;;2.55;0.70;;;;;;;28.71;55.02;98841.97;5030165;28;20083;-54
2023/08/08 07:10:06;;;;;;;7.43;0.77;;;;;;;28.63;52.63;98844.38;5026148;28;20064;-54
2023/08/08 07:12:32;;;;;;;3.67;0.57;;;;;;;28.82;51.80;98848.91;5032792;28;20024;-54
2023/08/08 07:14:57;;;;;;;3.28;0.90;;;;;;;28.34;51.53;98839.31;5030143;28;20029;-54
2023/08/08 07:17:22;;;;;;;2.25;0.88;;;;;;;27.10;54.71;98853.72;5032269;28;20468;-54
2023/08/08 07:19:48;;;;;;;4.00;0.80;;;;;;;28.89;52.22;98842.84;5036175;28;20029;-54
2023/08/08 07:22:13;;;;;;;2.03;0.65;;;;;;;30.31;48.46;98843.06;5029281;28;20033;-56
2023/08/08 07:24:39;;;;;;;1.17;0.50;;;;;;;30.93;46.71;98840.81;5034108;28;20028;-54
2023/08/08 07:27:04;;;;;;;1.80;0.77;;;;;;;29.90;46.26;98838.84;5032878;28;20021;-56
2023/08/08 07:29:30;;;;;;;3.08;0.60;;;;;;;29.96;47.41;98835.88;5068361;28;20028;-56
2023/08/08 07:31:57;;;;;;;1.33;0.60;;;;;;;30.28;47.77;98829.75;5034292;28;20025;-56
2023/08/08 07:34:23;;;;;;;1.77;0.60;;;;;;;31.22;45.08;98832.41;5037154;28;20021;-56
2023/08/08 07:36:48;;;;;;;3.35;0.60;;;;;;;30.83;45.80;98833.66;5037736;28;20040;-56
2023/08/08 07:39:14;;;;;;;1.25;0.70;;;;;;;29.61;47.65;98831.16;5034439;28;20071;-54
2023/08/08 07:41:40;;;;;;;2.40;0.73;;;;;;;30.11;46.39;98829.78;5034996;28;20024;-54
2023/08/08 07:44:05;;;;;;;2.92;0.68;;;;;;;28.95;47.49;98831.22;5035855;28;20024;-54
2023/08/08 07:46:32;;;;;;;1.90;0.70;;;;;;;28.83;48.02;98825.47;5034357;28;20033;-54
2023/08/08 07:48:59;;;;;;;3.67;0.95;;;;;;;28.04;48.43;98829.03;5030694;28;20380;-54
2023/08/08 07:51:25;;;;;;;3.10;0.80;;;;;;;29.55;47.31;98831.63;5022796;28;20029;-54
2023/08/08 07:53:50;;;;;;;1.33;0.60;;;;;;;30.72;44.73;98822.00;5035111;28;20033;-54
2023/08/08 07:56:16;;;;;;;1.52;0.50;;;;;;;33.38;41.82;98813.53;5034080;28;20024;-55
2023/08/08 07:58:41;;;;;;;1.50;0.63;;;;;;;33.77;40.46;98811.09;5031303;28;20021;-55
2023/08/08 08:01:07;;;;;;;1.23;0.55;;;;;;;30.50;42.42;98816.72;5032146;28;20047;-55
2023/08/08 08:03:32;;;;;;;1.52;0.70;;;;;;;32.55;41.56;98819.69;5029015;28;20036;-54
2023/08/08 08:05:58;;;;;;;3.80;0.75;;;;;;;32.68;40.72;98819.31;5036054;28;20070;-55
2023/08/08 08:08:24;;;;;;;2.78;0.63;;;;;;;32.36;41.11;98812.63;5019915;28;20056;-55
2023/08/08 08:10:50;;;;;;;3.03;0.68;;;;;;;29.09;43.65;98813.59;5034180;28;20369;-54
2023/08/08 08:13:16;;;;;;;0.82;0.50;;;;;;;28.52;44.19;98809.63;5036097;28;20054;-54
2023/08/08 08:15:42;;;;;;;0.70;0.40;;;;;;;28.23;46.34;98823.22;5036160;28;20115;-55
2023/08/08 08:18:08;;;;;;;1.98;0.80;;;;;;;26.96;47.87;98819.56;5023322;28;20160;-54
2023/08/08 08:20:33;;;;;;;2.80;0.70;;;;;;;24.17;53.85;98828.91;5024522;28;20132;-54
2023/08/08 08:22:59;;;;;;;1.23;0.63;;;;;;;24.64;54.52;98821.78;5035477;28;20079;-54
2023/08/08 08:25:24;;;;;;;2.45;0.70;;;;;;;23.18;58.07;98826.38;5033065;28;20029;-54
2023/08/08 08:27:50;;;;;;;1.42;0.75;;;;;;;21.87;61.36;98830.88;5034500;28;20043;-54
2023/08/08 08:30:15;;;;;;;1.80;0.60;;;;;;;23.14;61.33;98825.31;5021754;28;20103;-54
2023/08/08 08:32:41;;;;;;;2.92;0.63;;;;;;;23.44;60.60;98828.97;5033725;28;20483;-53
2023/08/08 08:35:07;;;;;;;2.28;0.60;;;;;;;23.47;59.79;98833.91;5037295;28;20111;-54
2023/08/08 08:37:33;;;;;;;2.60;0.68;;;;;;;22.90;62.08;98828.72;5032873;28;20618;-54
2023/08/08 08:39:59;;;;;;;2.05;0.55;;;;;;;24.08;60.66;98825.13;5033734;28;20031;-54
2023/08/08 08:42:26;;;;;;;1.95;0.88;;;;;;;24.48;59.22;98829.44;5034075;28;20087;-54
2023/08/08 08:44:57;;;;;;;2.15;0.60;;;;;;;24.22;60.05;98825.28;5037265;28;20021;-54
2023/08/08 08:47:24;;;;;;;1.27;0.52;;;;;;;26.36;54.45;98821.34;5026602;28;20024;-54
2023/08/08 08:49:54;;;;;;;1.90;0.70;;;;;;;26.79;53.03;98829.38;5030405;28;20091;-54
2023/08/08 08:52:20;;;;;;;2.30;0.80;;;;;;;24.43;56.24;98831.41;5042888;28;20487;-54
2023/08/08 08:54:45;;;;;;;2.70;0.55;;;;;;;24.93;56.05;98827.19;5032506;28;20033;-55
2023/08/08 08:57:12;;;;;;;2.08;0.77;;;;;;;24.65;56.61;98819.81;5034778;28;20488;-55
2023/08/08 08:59:37;;;;;;;2.08;0.70;;;;;;;24.33;58.37;98817.69;5033531;28;20086;-54
2023/08/08 09:02:03;;;;;;;1.45;0.60;;;;;;;23.58;58.67;98828.03;5025100;28;20418;-54
2023/08/08 09:04:29;;;;;;;4.03;0.60;;;;;;;24.69;57.38;98815.34;5032341;28;20146;-54
2023/08/08 09:06:55;;;;;;;1.27;0.60;;;;;;;24.60;56.70;98809.66;5033745;28;20070;-53
2023/08/08 09:09:22;;;;;;;1.52;0.50;;;;;;;25.09;55.75;98813.16;5034697;28;20021;-54
2023/08/08 09:11:50;;;;;;;1.40;0.63;;;;;;;24.00;56.09;98814.72;5033185;28;20483;-54
2023/08/08 09:14:20;;;;;;;3.85;0.70;;;;;;;26.58;53.22;98811.50;5031238;28;20037;-54
2023/08/08 09:16:47;;;;;;;4.95;0.75;;;;;;;27.46;50.82;98820.41;5029899;28;20094;-54
2023/08/08 09:19:13;;;;;;;1.60;0.57;;;;;;;26.08;51.60;98811.34;5028630;28;20028;-54
2023/08/08 09:21:39;;;;;;;1.55;0.50;;;;;;;26.02;53.35;98811.44;5035757;28;20043;-54
2023/08/08 09:24:05;;;;;;;1.48;0.50;;;;;;;24.37;56.95;98816.81;5035686;28;20025;-54
2023/08/08 09:26:30;;;;;;;2.95;1.02;;;;;;;25.21;55.89;98812.75;5034969;28;20530;-54
2023/08/08 09:28:56;;;;;;;1.55;0.52;;;;;;;26.22;55.78;98804.66;5046884;28;20071;-54
2023/08/08 09:31:25;;;;;;;1.65;0.70;;;;;;;26.96;53.26;98808.47;5029589;28;20463;-54
2023/08/08 09:33:51;;;;;;;0.50;0.40;;;;;;;27.15;51.94;98806.38;5027277;28;20052;-56
2023/08/08 09:36:19;;;;;;;2.45;0.68;;;;;;;27.78;52.42;98799.06;5030138;28;20517;-54
2023/08/08 09:38:45;;;;;;;2.78;0.77;;;;;;;28.27;49.42;98793.63;5032016;28;20024;-54
2023/08/08 09:41:11;;;;;;;1.33;0.60;;;;;;;29.30;46.14;98792.28;5031537;28;20017;-54
2023/08/08 09:43:37;;;;;;;2.00;0.70;;;;;;;30.82;43.95;98780.94;5034971;28;20074;-54
2023/08/08 09:46:03;;;;;;;3.00;0.60;;;;;;;29.49;43.37;98776.03;5035050;28;20032;-54
2023/08/08 09:48:32;;;;;;;4.10;0.60;;;;;;;27.97;47.44;98769.09;5029719;28;20029;-54
2023/08/08 09:50:59;;;;;;;1.60;0.50;;;;;;;26.34;50.64;98779.22;5034025;28;20071;-54
2023/08/08 09:53:27;;;;;;;2.10;0.60;;;;;;;26.17;49.75;98776.22;5035287;28;20040;-54
2023/08/08 09:55:57;;;;;;;2.92;0.52;;;;;;;28.35;48.04;98776.16;5034148;28;20483;-54
2023/08/08 09:58:23;;;;;;;1.40;1.05;;;;;;;28.22;47.34;98779.84;5030737;28;20124;-54
2023/08/08 10:00:52;;;;;;;3.92;0.50;;;;;;;26.88;49.01;98773.94;5021459;28;20111;-54
2023/08/08 10:03:19;;;;;;;3.67;0.70;;;;;;;30.87;43.66;98783.53;5043003;28;20022;-54
2023/08/08 10:05:45;;;;;;;1.17;0.50;;;;;;;32.37;40.86;98772.25;5047463;28;20025;-54
2023/08/08 10:08:11;;;;;;;0.93;0.60;;;;;;;31.51;41.96;98771.19;5032020;28;20029;-54
2023/08/08 10:10:38;;;;;;;1.23;0.70;;;;;;;30.92;41.64;98772.16;5030711;28;20021;-54
2023/08/08 10:13:05;;;;;;;3.35;0.80;;;;;;;31.21;41.23;98757.28;5027695;28;20335;-54
2023/08/08 10:15:30;;;;;;;0.98;0.50;;;;;;;32.38;39.49;98762.66;5033735;28;20040;-55
2023/08/08 10:17:57;;;;;;;1.33;0.40;;;;;;;34.87;36.52;98760.94;5030100;28;20025;-55
2023/08/08 10:20:25;;;;;;;1.75;0.50;;;;;;;33.58;35.52;98768.81;5031160;28;20445;-55
2023/08/08 10:22:54;;;;;;;1.08;0.50;;;;;;;35.13;36.28;98765.97;5042048;28;20043;-55
2023/08/08 10:25:27;;;;;;;1.27;0.50;;;;;;;33.20;36.03;98767.31;5034105;28;20064;-55
2023/08/08 10:28:03;;;;;;;2.35;0.50;;;;;;;29.89;38.44;98786.16;5047491;28;20920;-54
2023/08/08 10:30:29;;;;;;;2.03;0.50;;;;;;;30.57;39.92;98766.72;5030397;28;20416;-54
2023/08/08 10:32:57;;;;;;;3.38;0.70;;;;;;;30.26;39.28;98765.09;5026626;28;20484;-54
2023/08/08 10:35:24;;;;;;;1.75;0.70;;;;;;;30.47;38.41;98767.94;5048375;28;20020;-54
2023/08/08 10:37:54;;;;;;;1.38;0.50;;;;;;;30.48;38.82;98775.16;5034374;28;20464;-55
2023/08/08 10:40:20;;;;;;;1.38;0.63;;;;;;;29.59;39.58;98763.72;5033343;28;20078;-54
2023/08/08 10:42:47;;;;;;;1.13;0.70;;;;;;;27.98;41.49;98775.47;5021191;28;20413;-55
2023/08/08 10:45:15;;;;;;;1.45;0.65;;;;;;;28.59;40.91;98762.66;5047531;28;20352;-53
2023/08/08 10:47:42;;;;;;;;;;;;;;;29.13;41.43;98769.97;5022807;28;20035;-53
2023/08/08 10:50:08;;;;;;;3.70;1.35;;;;;;;29.74;41.95;98761.59;5032027;28;19919;-53
2023/08/08 10:52:55;;;;;;;1.42;0.50;;;;;;;30.16;41.96;98771.00;5033552;28;20025;-53
2023/08/08 10:55:22;;;;;;;2.20;0.75;;;;;;;29.83;40.49;98763.22;5032753;28;20032;-53
2023/08/08 10:57:57;;;;;;;2.08;0.60;;;;;;;26.95;43.51;98781.84;5031198;28;20451;-52
2023/08/08 11:00:35;;;;;;;2.22;0.82;;;;;;;27.18;44.63;98768.88;5015404;28;20496;-52
2023/08/08 11:03:02;;;;;;;1.10;0.60;;;;;;;30.03;42.34;98760.88;5024286;28;20052;-53
2023/08/08 11:05:30;;;;;;;1.70;0.70;;;;;;;31.39;39.79;98758.00;5045829;28;20025;-53
2023/08/08 11:07:56;;;;;;;1.50;0.50;;;;;;;32.76;38.89;98755.13;5021009;28;20121;-53
2023/08/08 11:10:22;;;;;;;1.35;0.50;;;;;;;31.46;38.27;98749.03;5025734;28;20037;-53
2023/08/08 11:12:59;;;;;;;1.40;0.40;;;;;;;29.50;39.30;98754.56;5025521;28;20036;-53
2023/08/08 11:15:26;;;;;;;1.70;0.63;;;;;;;31.81;37.80;98747.53;5029665;28;20033;-53
2023/08/08 11:17:53;;;;;;;2.53;0.60;;;;;;;32.56;35.67;98740.06;5026641;28;20128;-53
2023/08/08 11:20:18;;;;;;;2.65;0.50;;;;;;;32.71;36.25;98756.97;5046051;28;20280;-53
2023/08/08 11:22:43;;;;;;;0.57;0.45;;;;;;;32.77;38.17;98751.94;5032739;28;20036;-54
2023/08/08 11:25:09;;;;;;;1.80;0.50;;;;;;;34.27;35.99;98747.06;5032943;28;20033;-54